Inspiration — C6FM5 — position and weather

sailwx.info

Track history (hours):
 
Tides and Currents Weather Stations Pressure Air Temp Water Temp Dewpoint Dewpoint Depression Visibility Wind Speed Wind Dir Waves Ship Positions

Inspiration

Operator: Carnival Cruise Lines

Last reported at 2017-Nov-22 12:00 UTC. Time now 2017-Nov-23 00:22 UTC.
Position N 31°54' W 117°00'.

Type: Ship. MMSI: 309484000.

Wind from 360 at 5 knots

Barometer 1018.3 mb
Air temperature 18.0 ° C
Visibility: greater than 10.8 NM
Dewpoint 14.8 ° C
Water temperature 18.0 ° C

Date/timePositionNaut miles runAvg speedWind from/ knotsBaromVisibWave heightAir tempDewpointWater temp
2017-Nov-22 12:00N 31°54' W 117°00'86 3.6 360 / 51018.310.8 18.014.818.0
2017-Nov-21 12:00N 33°00' W 118°06'1313.0 320 / 41018.310.8 18.014.818.0
2017-Nov-21 11:00N 32°48' W 118°00'12 0.4 020 / 51018.3 5.4 18.014.819.0
2017-Nov-20 07:00N 32°54' W 117°48'56 7.9 320 / 101017.210.8 19.015.918.0
2017-Nov-19 23:56N 32°03' W 117°21'4 8.6
2017-Nov-19 23:30N 32°00' W 117°18'815.4
2017-Nov-19 23:00N 31°54' W 117°12'330.0 330 / 201015.210.8 22.015.819.0
2017-Nov-19 22:54N 31°56' W 117°14'3 7.3
2017-Nov-19 22:30N 31°54' W 117°13'4 8.0
2017-Nov-19 21:59N 31°52' W 117°18'4 9.2
2017-Nov-19 21:29N 31°52' W 117°23'12 7.7
2017-Nov-19 20:00N 31°48' W 117°36'591.5 340 / 151020.310.8 23.016.918.0
2017-Nov-19 19:56N 31°52' W 117°40'4 9.2
2017-Nov-19 19:30N 31°52' W 117°45'5 9.3
2017-Nov-19 18:58N 31°52' W 117°50'5 9.2
2017-Nov-19 18:27N 31°51' W 117°56'4 9.2
2017-Nov-19 17:59N 31°51' W 118°01'4 8.9
2017-Nov-19 17:31N 31°49' W 118°05'4 8.8
2017-Nov-19 17:01N 31°46' W 118°09'4 9.0
2017-Nov-19 16:30N 31°42' W 118°12'4 8.9
2017-Nov-19 16:00N 31°39' W 118°16'4 8.9
2017-Nov-19 15:30N 31°36' W 118°20'4 7.8
2017-Nov-19 15:01N 31°32' W 118°21'4 7.3
2017-Nov-19 14:31N 31°31' W 118°17'4 8.0
2017-Nov-19 14:00N 31°31' W 118°12'4 7.9
2017-Nov-19 13:29N 31°31' W 118°07'5 7.9
2017-Nov-19 12:54N 31°31' W 118°02'3 8.0
2017-Nov-19 12:30N 31°31' W 117°58'4 7.9
2017-Nov-19 12:00N 31°31' W 117°53'1151.5
2017-Nov-19 12:00N 31°30' W 117°54'5 8.7 330 / 221018.310.8 17.015.419.0
2017-Nov-19 11:25N 31°33' W 117°49'3 8.3
2017-Nov-19 11:00N 31°36' W 117°51'4 8.6
2017-Nov-19 10:30N 31°40' W 117°54'5 7.0
2017-Nov-19 09:46N 31°45' W 117°53'2 8.1
2017-Nov-19 09:30N 31°45' W 117°51'4 8.1
2017-Nov-19 09:00N 31°45' W 117°46'4 8.3
2017-Nov-19 08:30N 31°46' W 117°41'4 8.1
2017-Nov-19 08:00N 31°46' W 117°36'6 8.2
2017-Nov-19 07:15N 31°47' W 117°29'2 8.8
2017-Nov-19 07:00N 31°47' W 117°27'4 8.9
2017-Nov-19 06:30N 31°47' W 117°21'5 9.1
2017-Nov-19 06:00N 31°48' W 117°16'5 9.1
2017-Nov-19 05:28N 31°48' W 117°10'4 9.2
2017-Nov-19 05:01N 31°49' W 117°05'5 9.1
2017-Nov-19 04:27N 31°49' W 116°59'4 9.5
2017-Nov-19 04:00N 31°50' W 116°54'5 9.5
2017-Nov-19 03:30N 31°50' W 116°49'13 0.9
2017-Nov-18 12:54N 31°57' W 117°01'512.8
2017-Nov-18 12:30N 31°59' W 117°06'612.7
2017-Nov-18 12:00N 32°03' W 117°13'6480.2
2017-Nov-18 12:00N 32°00' W 117°06'1225.8 330 / 181019.310.8 18.014.818.0
2017-Nov-18 11:30N 32°07' W 117°18'612.4
2017-Nov-18 11:00N 32°11' W 117°24'7437.0
2017-Nov-18 11:00N 32°06' W 117°18'1622.6 360 / 151020.3 5.4 18.014.819.0
2017-Nov-18 10:18N 32°16' W 117°32'412.3
2017-Nov-18 10:00N 32°19' W 117°34'612.3
2017-Nov-18 09:31N 32°25' W 117°37'612.3
2017-Nov-18 09:01N 32°31' W 117°39'612.2
2017-Nov-18 08:30N 32°36' W 117°43'612.2
2017-Nov-18 08:00N 32°42' W 117°45'612.6
2017-Nov-18 07:31N 32°48' W 117°48'612.6
2017-Nov-18 07:00N 32°53' W 117°52'612.6
2017-Nov-18 06:30N 32°59' W 117°55'612.4
2017-Nov-18 06:00N 33°05' W 117°58'612.6
2017-Nov-18 05:31N 33°10' W 118°01'612.5
2017-Nov-18 05:00N 33°16' W 118°04'2112.4
2017-Nov-18 03:18N 33°36' W 118°13'311.4
2017-Nov-18 03:00N 33°39' W 118°12'6 2.1
2017-Nov-18 00:03N 33°45' W 118°11'0 0.0
2017-Nov-17 23:51N 33°45' W 118°11'0 0.0
2017-Nov-17 23:27N 33°45' W 118°11'0 0.0
2017-Nov-17 22:51N 33°45' W 118°11'0 0.0
2017-Nov-17 17:12N 33°45' W 118°11'0 0.0
2017-Nov-17 17:00N 33°45' W 118°11'0 0.0
2017-Nov-17 13:39N 33°45' W 118°11'0 1.2
2017-Nov-17 13:30N 33°45' W 118°11'1 2.0
2017-Nov-17 13:00N 33°44' W 118°11'5 9.2
2017-Nov-17 12:30N 33°40' W 118°09'4 7.7
2017-Nov-17 12:00N 33°36' W 118°10'4 8.1
2017-Nov-17 11:30N 33°32' W 118°08'4 8.3
2017-Nov-17 11:00N 33°28' W 118°06'4 8.4
2017-Nov-17 10:30N 33°24' W 118°05'4 8.0
2017-Nov-17 10:01N 33°20' W 118°03'4 8.1
2017-Nov-17 09:30N 33°17' W 118°01'4 7.9
2017-Nov-17 09:00N 33°13' W 117°60'4 8.3
2017-Nov-17 08:30N 33°09' W 117°58'4 8.7
2017-Nov-17 08:00N 33°05' W 117°56'4 8.8
2017-Nov-17 07:30N 33°01' W 117°55'4 8.6
2017-Nov-17 07:00N 32°57' W 117°53'5328.1
2017-Nov-17 07:00N 32°54' W 117°48'3 5.8 280 / 51016.210.8 18.014.819.0
2017-Nov-17 06:31N 32°53' W 117°51'4 8.5
2017-Nov-17 06:01N 32°49' W 117°49'4 8.5
2017-Nov-17 05:31N 32°45' W 117°48'4 8.7
2017-Nov-17 05:01N 32°41' W 117°46'4 8.7
2017-Nov-17 04:30N 32°37' W 117°44'4 8.6
2017-Nov-17 04:00N 32°33' W 117°43'4 8.7
2017-Nov-17 03:31N 32°28' W 117°41'4 8.5
2017-Nov-17 03:00N 32°24' W 117°39'4 8.5
2017-Nov-17 02:30N 32°20' W 117°38'4 8.7
2017-Nov-17 02:01N 32°17' W 117°35'4 8.7
2017-Nov-17 01:30N 32°13' W 117°32'4 8.7
2017-Nov-17 01:00N 32°10' W 117°28'4 8.3
2017-Nov-17 00:30N 32°07' W 117°25'918.1
2017-Nov-17 00:00N 32°00' W 117°18'467.9 320 / 171015.210.8 20.016.919.0
2017-Nov-16 23:56N 32°03' W 117°21'4 9.5
2017-Nov-16 23:30N 32°00' W 117°18'5 9.3
2017-Nov-16 23:00N 31°57' W 117°14'4 8.3
2017-Nov-16 22:30N 31°53' W 117°14'611.8
2017-Nov-16 22:00N 31°52' W 117°21'611.9
2017-Nov-16 21:30N 31°52' W 117°28'910.3
2017-Nov-16 20:40N 31°52' W 117°39'210.2
2017-Nov-16 20:31N 31°52' W 117°40'510.7
2017-Nov-16 20:01N 31°52' W 117°47'510.6
2017-Nov-16 19:30N 31°51' W 117°53'510.7
2017-Nov-16 19:01N 31°51' W 117°59'5 9.3
2017-Nov-16 18:31N 31°47' W 118°02'5 9.1
2017-Nov-16 18:00N 31°43' W 118°02'1102.8
2017-Nov-16 18:00N 31°42' W 118°00'4 8.3 330 / 141017.210.8 21.018.019.0
2017-Nov-16 17:30N 31°38' W 118°02'4 8.4
2017-Nov-16 17:01N 31°37' W 118°07'4 8.2
2017-Nov-16 16:30N 31°37' W 118°11'4 8.1
2017-Nov-16 16:00N 31°36' W 118°16'4 7.2
2017-Nov-16 15:30N 31°33' W 118°17'3 6.5
2017-Nov-16 15:00N 31°31' W 118°14'4 7.1
2017-Nov-16 14:31N 31°31' W 118°10'4 7.3
2017-Nov-16 14:00N 31°31' W 118°06'4 7.5
2017-Nov-16 13:30N 31°31' W 118°02'4 7.3
2017-Nov-16 13:01N 31°31' W 117°57'4 7.3
2017-Nov-16 12:30N 31°31' W 117°53'4 7.0
2017-Nov-16 12:00N 31°33' W 117°50'3245.1
2017-Nov-16 12:00N 31°30' W 117°48'613.3 330 / 141020.310.8 18.014.819.0
2017-Nov-16 11:30N 31°36' W 117°51'4 7.7
2017-Nov-16 11:01N 31°39' W 117°54'4 8.1
2017-Nov-16 10:31N 31°42' W 117°56'3 6.5
2017-Nov-16 10:01N 31°45' W 117°54'3 6.9
2017-Nov-16 09:31N 31°45' W 117°50'3 7.0
2017-Nov-16 09:01N 31°45' W 117°46'4 7.1
2017-Nov-16 08:31N 31°46' W 117°42'4 7.4
2017-Nov-16 08:00N 31°46' W 117°37'4 7.7
2017-Nov-16 07:30N 31°46' W 117°33'7 8.6
2017-Nov-16 06:41N 31°47' W 117°25'2 9.9
2017-Nov-16 06:28N 31°47' W 117°22'918.3
2017-Nov-16 06:00N 31°48' W 117°12'4231.1 350 / 221016.210.8 18.016.418.0
2017-Nov-16 05:59N 31°48' W 117°16'510.1
2017-Nov-16 05:29N 31°48' W 117°11'5 9.8
2017-Nov-16 05:00N 31°49' W 117°05'510.0
2017-Nov-16 04:30N 31°49' W 116°59'610.2
2017-Nov-16 03:56N 31°50' W 116°52'11 0.8
2017-Nov-15 14:47N 31°50' W 116°39'2 8.1
2017-Nov-15 14:30N 31°50' W 116°42'4 7.7
2017-Nov-15 14:00N 31°52' W 116°46'4 7.6
2017-Nov-15 13:30N 31°54' W 116°50'3 6.3
2017-Nov-15 13:00N 31°55' W 116°53'4 8.2
2017-Nov-15 12:29N 31°57' W 116°58'4 8.2
2017-Nov-15 12:00N 31°58' W 117°02'8531.9
2017-Nov-15 12:00N 31°54' W 116°54'1224.6 350 / 131019.310.8 18.014.817.0
2017-Nov-15 11:30N 31°60' W 117°06'4 8.5
2017-Nov-15 11:00N 32°01' W 117°11'4 8.8
2017-Nov-15 10:30N 32°03' W 117°16'5 9.0
2017-Nov-15 10:00N 32°05' W 117°21'5 9.2
2017-Nov-15 09:30N 32°06' W 117°26'5 9.2
2017-Nov-15 09:00N 32°08' W 117°31'4 8.7
2017-Nov-15 08:30N 32°11' W 117°34'5 9.0
2017-Nov-15 08:00N 32°15' W 117°37'510.4
2017-Nov-15 07:30N 32°20' W 117°40'510.6
2017-Nov-15 07:00N 32°25' W 117°43'510.4
2017-Nov-15 06:30N 32°29' W 117°46'510.3
2017-Nov-15 06:00N 32°34' W 117°49'4240.2
2017-Nov-15 06:00N 32°30' W 117°48'918.2 280 / 71018.310.8 19.015.919.0
2017-Nov-15 05:30N 32°38' W 117°52'510.6
2017-Nov-15 05:00N 32°43' W 117°55'510.6
2017-Nov-15 04:30N 32°48' W 117°57'611.0
2017-Nov-15 04:00N 32°53' W 117°59'510.6
2017-Nov-15 03:30N 32°58' W 118°02'510.8
2017-Nov-15 03:00N 33°03' W 118°05'610.8
2017-Nov-15 02:30N 33°07' W 118°08'510.8
2017-Nov-15 01:59N 33°12' W 118°11'510.7
2017-Nov-15 01:30N 33°17' W 118°14'510.0
2017-Nov-15 01:00N 33°20' W 118°18'1 0.9
2017-Nov-14 23:53N 33°21' W 118°19'0 0.0
2017-Nov-14 22:26N 33°21' W 118°19'0 0.0
2017-Nov-14 20:13N 33°21' W 118°19'0 0.0
2017-Nov-14 19:55N 33°21' W 118°19'0 0.0
2017-Nov-14 19:18N 33°21' W 118°19'0 0.0
2017-Nov-14 19:00N 33°21' W 118°19'0 0.0
2017-Nov-14 18:30N 33°21' W 118°19'0 0.0
2017-Nov-14 18:00N 33°21' W 118°19'0 0.0
2017-Nov-14 17:24N 33°21' W 118°19'0 0.0
2017-Nov-14 17:00N 33°21' W 118°19'0 0.0
2017-Nov-14 16:30N 33°21' W 118°19'0 0.0
2017-Nov-14 16:01N 33°21' W 118°19'0 0.2
2017-Nov-14 15:30N 33°21' W 118°19'0 0.1
2017-Nov-14 15:01N 33°21' W 118°19'3 6.5
2017-Nov-14 14:30N 33°18' W 118°17'4 7.7
2017-Nov-14 14:00N 33°15' W 118°16'4 7.5
2017-Nov-14 13:30N 33°11' W 118°16'4 8.8
2017-Nov-14 13:00N 33°06' W 118°15'5 9.3
2017-Nov-14 12:30N 33°02' W 118°12'4 8.5
2017-Nov-14 12:00N 32°59' W 118°09'3179.7
2017-Nov-14 12:00N 33°00' W 118°06'4 8.3 310 / 91019.310.8 18.014.819.0
2017-Nov-14 11:30N 32°56' W 118°06'4 7.5
2017-Nov-14 11:00N 32°53' W 118°04'2148.5
2017-Nov-14 11:00N 32°54' W 118°06'612.0 320 / 101020.3 5.4 18.516.219.0
2017-Nov-14 10:30N 32°50' W 118°01'4 7.2
2017-Nov-14 10:00N 32°47' W 117°58'3 6.9
2017-Nov-14 09:30N 32°48' W 117°54'3 6.9
2017-Nov-14 09:00N 32°52' W 117°55'4 7.2
2017-Nov-14 08:30N 32°55' W 117°56'3 6.9
2017-Nov-14 08:00N 32°58' W 117°58'3 6.6
2017-Nov-14 07:30N 33°01' W 117°59'3 6.5
2017-Nov-14 07:00N 33°05' W 118°00'3 6.7
2017-Nov-14 06:31N 33°08' W 118°01'3 6.9
2017-Nov-14 06:00N 33°11' W 118°03'5361.3
2017-Nov-14 06:00N 33°06' W 118°00'918.3 280 / 71019.310.8 17.013.719.0
2017-Nov-14 05:31N 33°14' W 118°04'3 7.0
2017-Nov-14 05:00N 33°17' W 118°05'4 7.3
2017-Nov-14 04:30N 33°21' W 118°07'510.5
2017-Nov-14 04:00N 33°26' W 118°09'510.9
2017-Nov-14 03:30N 33°31' W 118°11'510.5
2017-Nov-14 03:00N 33°36' W 118°13'5 9.6
2017-Nov-14 02:27N 33°41' W 118°12'4 7.5
2017-Nov-14 01:56N 33°45' W 118°11'0 0.2
2017-Nov-14 01:30N 33°45' W 118°11'0 0.0
2017-Nov-14 00:59N 33°45' W 118°11'0 0.0
2017-Nov-14 00:29N 33°45' W 118°11'0 0.0
2017-Nov-13 23:56N 33°45' W 118°11'0 0.0
2017-Nov-13 23:29N 33°45' W 118°11'0 0.0
2017-Nov-13 22:59N 33°45' W 118°11'0 0.0
2017-Nov-13 22:28N 33°45' W 118°11'0 0.0
2017-Nov-13 21:58N 33°45' W 118°11'60 3.8
2017-Nov-13 06:00N 32°48' W 117°48'37 9.2 320 / 111019.310.8 18.014.819.0
2017-Nov-13 02:00N 32°14' W 117°32'5 8.9
2017-Nov-13 01:24N 32°10' W 117°28'4 9.0
2017-Nov-13 01:00N 32°07' W 117°25'4 8.9
2017-Nov-13 00:30N 32°04' W 117°21'4 8.8
2017-Nov-13 00:00N 32°01' W 117°18'4 8.5
2017-Nov-12 23:30N 31°57' W 117°15'4 7.3
2017-Nov-12 23:00N 31°54' W 117°13'4 8.3
2017-Nov-12 22:30N 31°52' W 117°17'5 9.1
2017-Nov-12 22:00N 31°50' W 117°23'5 9.2
2017-Nov-12 21:30N 31°49' W 117°28'5 9.3
2017-Nov-12 20:55N 31°48' W 117°34'4 9.5
2017-Nov-12 20:30N 31°48' W 117°39'5 9.6
2017-Nov-12 20:00N 31°47' W 117°44'5 9.5
2017-Nov-12 19:30N 31°45' W 117°50'5 8.9
2017-Nov-12 18:57N 31°43' W 117°55'3 7.1
2017-Nov-12 18:30N 31°40' W 117°54'612.6
2017-Nov-12 18:00N 31°36' W 117°48'4184.5 320 / 201020.310.8 21.014.719.0
2017-Nov-12 17:58N 31°37' W 117°52'4 7.5
2017-Nov-12 17:30N 31°35' W 117°56'4 8.3
2017-Nov-12 17:00N 31°35' W 118°01'4 8.3
2017-Nov-12 16:30N 31°35' W 118°06'4 8.1
2017-Nov-12 16:00N 31°35' W 118°10'4 7.7
2017-Nov-12 15:30N 31°35' W 118°15'4 6.9
2017-Nov-12 15:00N 31°33' W 118°19'3 6.2
2017-Nov-12 14:30N 31°31' W 118°16'4 7.5
2017-Nov-12 13:58N 31°31' W 118°12'4 7.3
2017-Nov-12 13:25N 31°31' W 118°07'3 7.2
2017-Nov-12 13:00N 31°31' W 118°03'4 7.3
2017-Nov-12 12:30N 31°31' W 117°59'4 7.5
2017-Nov-12 12:00N 31°31' W 117°55'6384.3
2017-Nov-12 12:00N 31°30' W 117°48'   330 / 271018.3 5.4 18.015.619.0
Track history (hours):
 
Tides and Currents Weather Stations Pressure Air Temp Water Temp Dewpoint Dewpoint Depression Visibility Wind Speed Wind Dir Waves Ship Positions

Inspiration

Operator: Carnival Cruise Lines

Last reported at 2017-Nov-22 12:00 UTC. Time now 2017-Nov-23 00:22 UTC.
Position N 31°54' W 117°00'.

Type: Ship. MMSI: 309484000.

Wind from 360 at 5 knots

Barometer 1018.3 mb
Air temperature 18.0 ° C
Visibility: greater than 10.8 NM
Dewpoint 14.8 ° C
Water temperature 18.0 ° C

Date/timePositionNaut miles runAvg speedWind from/ knotsBaromVisibWave heightAir tempDewpointWater temp
2017-Nov-22 12:00N 31°54' W 117°00'86 3.6 360 / 51018.310.8 18.014.818.0
2017-Nov-21 12:00N 33°00' W 118°06'1313.0 320 / 41018.310.8 18.014.818.0
2017-Nov-21 11:00N 32°48' W 118°00'12 0.4 020 / 51018.3 5.4 18.014.819.0
2017-Nov-20 07:00N 32°54' W 117°48'56 7.9 320 / 101017.210.8 19.015.918.0
2017-Nov-19 23:56N 32°03' W 117°21'4 8.6
2017-Nov-19 23:30N 32°00' W 117°18'815.4
2017-Nov-19 23:00N 31°54' W 117°12'330.0 330 / 201015.210.8 22.015.819.0
2017-Nov-19 22:54N 31°56' W 117°14'3 7.3
2017-Nov-19 22:30N 31°54' W 117°13'4 8.0
2017-Nov-19 21:59N 31°52' W 117°18'4 9.2
2017-Nov-19 21:29N 31°52' W 117°23'12 7.7
2017-Nov-19 20:00N 31°48' W 117°36'591.5 340 / 151020.310.8 23.016.918.0
2017-Nov-19 19:56N 31°52' W 117°40'4 9.2
2017-Nov-19 19:30N 31°52' W 117°45'5 9.3
2017-Nov-19 18:58N 31°52' W 117°50'5 9.2
2017-Nov-19 18:27N 31°51' W 117°56'4 9.2
2017-Nov-19 17:59N 31°51' W 118°01'4 8.9
2017-Nov-19 17:31N 31°49' W 118°05'4 8.8
2017-Nov-19 17:01N 31°46' W 118°09'4 9.0
2017-Nov-19 16:30N 31°42' W 118°12'4 8.9
2017-Nov-19 16:00N 31°39' W 118°16'4 8.9
2017-Nov-19 15:30N 31°36' W 118°20'4 7.8
2017-Nov-19 15:01N 31°32' W 118°21'4 7.3
2017-Nov-19 14:31N 31°31' W 118°17'4 8.0
2017-Nov-19 14:00N 31°31' W 118°12'4 7.9
2017-Nov-19 13:29N 31°31' W 118°07'5 7.9
2017-Nov-19 12:54N 31°31' W 118°02'3 8.0
2017-Nov-19 12:30N 31°31' W 117°58'4 7.9
2017-Nov-19 12:00N 31°31' W 117°53'1151.5
2017-Nov-19 12:00N 31°30' W 117°54'5 8.7 330 / 221018.310.8 17.015.419.0
2017-Nov-19 11:25N 31°33' W 117°49'3 8.3
2017-Nov-19 11:00N 31°36' W 117°51'4 8.6
2017-Nov-19 10:30N 31°40' W 117°54'5 7.0
2017-Nov-19 09:46N 31°45' W 117°53'2 8.1
2017-Nov-19 09:30N 31°45' W 117°51'4 8.1
2017-Nov-19 09:00N 31°45' W 117°46'4 8.3
2017-Nov-19 08:30N 31°46' W 117°41'4 8.1
2017-Nov-19 08:00N 31°46' W 117°36'6 8.2
2017-Nov-19 07:15N 31°47' W 117°29'2 8.8
2017-Nov-19 07:00N 31°47' W 117°27'4 8.9
2017-Nov-19 06:30N 31°47' W 117°21'5 9.1
2017-Nov-19 06:00N 31°48' W 117°16'5 9.1
2017-Nov-19 05:28N 31°48' W 117°10'4 9.2
2017-Nov-19 05:01N 31°49' W 117°05'5 9.1
2017-Nov-19 04:27N 31°49' W 116°59'4 9.5
2017-Nov-19 04:00N 31°50' W 116°54'5 9.5
2017-Nov-19 03:30N 31°50' W 116°49'13 0.9
2017-Nov-18 12:54N 31°57' W 117°01'512.8
2017-Nov-18 12:30N 31°59' W 117°06'612.7
2017-Nov-18 12:00N 32°03' W 117°13'6480.2
2017-Nov-18 12:00N 32°00' W 117°06'1225.8 330 / 181019.310.8 18.014.818.0
2017-Nov-18 11:30N 32°07' W 117°18'612.4
2017-Nov-18 11:00N 32°11' W 117°24'7437.0
2017-Nov-18 11:00N 32°06' W 117°18'1622.6 360 / 151020.3 5.4 18.014.819.0
2017-Nov-18 10:18N 32°16' W 117°32'412.3
2017-Nov-18 10:00N 32°19' W 117°34'612.3
2017-Nov-18 09:31N 32°25' W 117°37'612.3
2017-Nov-18 09:01N 32°31' W 117°39'612.2
2017-Nov-18 08:30N 32°36' W 117°43'612.2
2017-Nov-18 08:00N 32°42' W 117°45'612.6
2017-Nov-18 07:31N 32°48' W 117°48'612.6
2017-Nov-18 07:00N 32°53' W 117°52'612.6
2017-Nov-18 06:30N 32°59' W 117°55'612.4
2017-Nov-18 06:00N 33°05' W 117°58'612.6
2017-Nov-18 05:31N 33°10' W 118°01'612.5
2017-Nov-18 05:00N 33°16' W 118°04'2112.4
2017-Nov-18 03:18N 33°36' W 118°13'311.4
2017-Nov-18 03:00N 33°39' W 118°12'6 2.1
2017-Nov-18 00:03N 33°45' W 118°11'0 0.0
2017-Nov-17 23:51N 33°45' W 118°11'0 0.0
2017-Nov-17 23:27N 33°45' W 118°11'0 0.0
2017-Nov-17 22:51N 33°45' W 118°11'0 0.0
2017-Nov-17 17:12N 33°45' W 118°11'0 0.0
2017-Nov-17 17:00N 33°45' W 118°11'0 0.0
2017-Nov-17 13:39N 33°45' W 118°11'0 1.2
2017-Nov-17 13:30N 33°45' W 118°11'1 2.0
2017-Nov-17 13:00N 33°44' W 118°11'5 9.2
2017-Nov-17 12:30N 33°40' W 118°09'4 7.7
2017-Nov-17 12:00N 33°36' W 118°10'4 8.1
2017-Nov-17 11:30N 33°32' W 118°08'4 8.3
2017-Nov-17 11:00N 33°28' W 118°06'4 8.4
2017-Nov-17 10:30N 33°24' W 118°05'4 8.0
2017-Nov-17 10:01N 33°20' W 118°03'4 8.1
2017-Nov-17 09:30N 33°17' W 118°01'4 7.9
2017-Nov-17 09:00N 33°13' W 117°60'4 8.3
2017-Nov-17 08:30N 33°09' W 117°58'4 8.7
2017-Nov-17 08:00N 33°05' W 117°56'4 8.8
2017-Nov-17 07:30N 33°01' W 117°55'4 8.6
2017-Nov-17 07:00N 32°57' W 117°53'5328.1
2017-Nov-17 07:00N 32°54' W 117°48'3 5.8 280 / 51016.210.8 18.014.819.0
2017-Nov-17 06:31N 32°53' W 117°51'4 8.5
2017-Nov-17 06:01N 32°49' W 117°49'4 8.5
2017-Nov-17 05:31N 32°45' W 117°48'4 8.7
2017-Nov-17 05:01N 32°41' W 117°46'4 8.7
2017-Nov-17 04:30N 32°37' W 117°44'4 8.6
2017-Nov-17 04:00N 32°33' W 117°43'4 8.7
2017-Nov-17 03:31N 32°28' W 117°41'4 8.5
2017-Nov-17 03:00N 32°24' W 117°39'4 8.5
2017-Nov-17 02:30N 32°20' W 117°38'4 8.7
2017-Nov-17 02:01N 32°17' W 117°35'4 8.7
2017-Nov-17 01:30N 32°13' W 117°32'4 8.7
2017-Nov-17 01:00N 32°10' W 117°28'4 8.3
2017-Nov-17 00:30N 32°07' W 117°25'918.1
2017-Nov-17 00:00N 32°00' W 117°18'467.9 320 / 171015.210.8 20.016.919.0
2017-Nov-16 23:56N 32°03' W 117°21'4 9.5
2017-Nov-16 23:30N 32°00' W 117°18'5 9.3
2017-Nov-16 23:00N 31°57' W 117°14'4 8.3
2017-Nov-16 22:30N 31°53' W 117°14'611.8
2017-Nov-16 22:00N 31°52' W 117°21'611.9
2017-Nov-16 21:30N 31°52' W 117°28'910.3
2017-Nov-16 20:40N 31°52' W 117°39'210.2
2017-Nov-16 20:31N 31°52' W 117°40'510.7
2017-Nov-16 20:01N 31°52' W 117°47'510.6
2017-Nov-16 19:30N 31°51' W 117°53'510.7
2017-Nov-16 19:01N 31°51' W 117°59'5 9.3
2017-Nov-16 18:31N 31°47' W 118°02'5 9.1
2017-Nov-16 18:00N 31°43' W 118°02'1102.8
2017-Nov-16 18:00N 31°42' W 118°00'4 8.3 330 / 141017.210.8 21.018.019.0
2017-Nov-16 17:30N 31°38' W 118°02'4 8.4
2017-Nov-16 17:01N 31°37' W 118°07'4 8.2
2017-Nov-16 16:30N 31°37' W 118°11'4 8.1
2017-Nov-16 16:00N 31°36' W 118°16'4 7.2
2017-Nov-16 15:30N 31°33' W 118°17'3 6.5
2017-Nov-16 15:00N 31°31' W 118°14'4 7.1
2017-Nov-16 14:31N 31°31' W 118°10'4 7.3
2017-Nov-16 14:00N 31°31' W 118°06'4 7.5
2017-Nov-16 13:30N 31°31' W 118°02'4 7.3
2017-Nov-16 13:01N 31°31' W 117°57'4 7.3
2017-Nov-16 12:30N 31°31' W 117°53'4 7.0
2017-Nov-16 12:00N 31°33' W 117°50'3245.1
2017-Nov-16 12:00N 31°30' W 117°48'613.3 330 / 141020.310.8 18.014.819.0
2017-Nov-16 11:30N 31°36' W 117°51'4 7.7
2017-Nov-16 11:01N 31°39' W 117°54'4 8.1
2017-Nov-16 10:31N 31°42' W 117°56'3 6.5
2017-Nov-16 10:01N 31°45' W 117°54'3 6.9
2017-Nov-16 09:31N 31°45' W 117°50'3 7.0
2017-Nov-16 09:01N 31°45' W 117°46'4 7.1
2017-Nov-16 08:31N 31°46' W 117°42'4 7.4
2017-Nov-16 08:00N 31°46' W 117°37'4 7.7
2017-Nov-16 07:30N 31°46' W 117°33'7 8.6
2017-Nov-16 06:41N 31°47' W 117°25'2 9.9
2017-Nov-16 06:28N 31°47' W 117°22'918.3
2017-Nov-16 06:00N 31°48' W 117°12'4231.1 350 / 221016.210.8 18.016.418.0
2017-Nov-16 05:59N 31°48' W 117°16'510.1
2017-Nov-16 05:29N 31°48' W 117°11'5 9.8
2017-Nov-16 05:00N 31°49' W 117°05'510.0
2017-Nov-16 04:30N 31°49' W 116°59'610.2
2017-Nov-16 03:56N 31°50' W 116°52'11 0.8
2017-Nov-15 14:47N 31°50' W 116°39'2 8.1
2017-Nov-15 14:30N 31°50' W 116°42'4 7.7
2017-Nov-15 14:00N 31°52' W 116°46'4 7.6
2017-Nov-15 13:30N 31°54' W 116°50'3 6.3
2017-Nov-15 13:00N 31°55' W 116°53'4 8.2
2017-Nov-15 12:29N 31°57' W 116°58'4 8.2
2017-Nov-15 12:00N 31°58' W 117°02'8531.9
2017-Nov-15 12:00N 31°54' W 116°54'1224.6 350 / 131019.310.8 18.014.817.0
2017-Nov-15 11:30N 31°60' W 117°06'4 8.5
2017-Nov-15 11:00N 32°01' W 117°11'4 8.8
2017-Nov-15 10:30N 32°03' W 117°16'5 9.0
2017-Nov-15 10:00N 32°05' W 117°21'5 9.2
2017-Nov-15 09:30N 32°06' W 117°26'5 9.2
2017-Nov-15 09:00N 32°08' W 117°31'4 8.7
2017-Nov-15 08:30N 32°11' W 117°34'5 9.0
2017-Nov-15 08:00N 32°15' W 117°37'510.4
2017-Nov-15 07:30N 32°20' W 117°40'510.6
2017-Nov-15 07:00N 32°25' W 117°43'510.4
2017-Nov-15 06:30N 32°29' W 117°46'510.3
2017-Nov-15 06:00N 32°34' W 117°49'4240.2
2017-Nov-15 06:00N 32°30' W 117°48'918.2 280 / 71018.310.8 19.015.919.0
2017-Nov-15 05:30N 32°38' W 117°52'510.6
2017-Nov-15 05:00N 32°43' W 117°55'510.6
2017-Nov-15 04:30N 32°48' W 117°57'611.0
2017-Nov-15 04:00N 32°53' W 117°59'510.6
2017-Nov-15 03:30N 32°58' W 118°02'510.8
2017-Nov-15 03:00N 33°03' W 118°05'610.8
2017-Nov-15 02:30N 33°07' W 118°08'510.8
2017-Nov-15 01:59N 33°12' W 118°11'510.7
2017-Nov-15 01:30N 33°17' W 118°14'510.0
2017-Nov-15 01:00N 33°20' W 118°18'1 0.9
2017-Nov-14 23:53N 33°21' W 118°19'0 0.0
2017-Nov-14 22:26N 33°21' W 118°19'0 0.0
2017-Nov-14 20:13N 33°21' W 118°19'0 0.0
2017-Nov-14 19:55N 33°21' W 118°19'0 0.0
2017-Nov-14 19:18N 33°21' W 118°19'0 0.0
2017-Nov-14 19:00N 33°21' W 118°19'0 0.0
2017-Nov-14 18:30N 33°21' W 118°19'0 0.0
2017-Nov-14 18:00N 33°21' W 118°19'0 0.0
2017-Nov-14 17:24N 33°21' W 118°19'0 0.0
2017-Nov-14 17:00N 33°21' W 118°19'0 0.0
2017-Nov-14 16:30N 33°21' W 118°19'0 0.0
2017-Nov-14 16:01N 33°21' W 118°19'0 0.2
2017-Nov-14 15:30N 33°21' W 118°19'0 0.1
2017-Nov-14 15:01N 33°21' W 118°19'3 6.5
2017-Nov-14 14:30N 33°18' W 118°17'4 7.7
2017-Nov-14 14:00N 33°15' W 118°16'4 7.5
2017-Nov-14 13:30N 33°11' W 118°16'4 8.8
2017-Nov-14 13:00N 33°06' W 118°15'5 9.3
2017-Nov-14 12:30N 33°02' W 118°12'4 8.5
2017-Nov-14 12:00N 32°59' W 118°09'3179.7
2017-Nov-14 12:00N 33°00' W 118°06'4 8.3 310 / 91019.310.8 18.014.819.0
2017-Nov-14 11:30N 32°56' W 118°06'4 7.5
2017-Nov-14 11:00N 32°53' W 118°04'2148.5
2017-Nov-14 11:00N 32°54' W 118°06'612.0 320 / 101020.3 5.4 18.516.219.0
2017-Nov-14 10:30N 32°50' W 118°01'4 7.2
2017-Nov-14 10:00N 32°47' W 117°58'3 6.9
2017-Nov-14 09:30N 32°48' W 117°54'3 6.9
2017-Nov-14 09:00N 32°52' W 117°55'4 7.2
2017-Nov-14 08:30N 32°55' W 117°56'3 6.9
2017-Nov-14 08:00N 32°58' W 117°58'3 6.6
2017-Nov-14 07:30N 33°01' W 117°59'3 6.5
2017-Nov-14 07:00N 33°05' W 118°00'3 6.7
2017-Nov-14 06:31N 33°08' W 118°01'3 6.9
2017-Nov-14 06:00N 33°11' W 118°03'5361.3
2017-Nov-14 06:00N 33°06' W 118°00'918.3 280 / 71019.310.8 17.013.719.0
2017-Nov-14 05:31N 33°14' W 118°04'3 7.0
2017-Nov-14 05:00N 33°17' W 118°05'4 7.3
2017-Nov-14 04:30N 33°21' W 118°07'510.5
2017-Nov-14 04:00N 33°26' W 118°09'510.9
2017-Nov-14 03:30N 33°31' W 118°11'510.5
2017-Nov-14 03:00N 33°36' W 118°13'5 9.6
2017-Nov-14 02:27N 33°41' W 118°12'4 7.5
2017-Nov-14 01:56N 33°45' W 118°11'0 0.2
2017-Nov-14 01:30N 33°45' W 118°11'0 0.0
2017-Nov-14 00:59N 33°45' W 118°11'0 0.0
2017-Nov-14 00:29N 33°45' W 118°11'0 0.0
2017-Nov-13 23:56N 33°45' W 118°11'0 0.0
2017-Nov-13 23:29N 33°45' W 118°11'0 0.0
2017-Nov-13 22:59N 33°45' W 118°11'0 0.0
2017-Nov-13 22:28N 33°45' W 118°11'0 0.0
2017-Nov-13 21:58N 33°45' W 118°11'60 3.8
2017-Nov-13 06:00N 32°48' W 117°48'37 9.2 320 / 111019.310.8 18.014.819.0
2017-Nov-13 02:00N 32°14' W 117°32'5 8.9
2017-Nov-13 01:24N 32°10' W 117°28'4 9.0
2017-Nov-13 01:00N 32°07' W 117°25'4 8.9
2017-Nov-13 00:30N 32°04' W 117°21'4 8.8
2017-Nov-13 00:00N 32°01' W 117°18'4 8.5
2017-Nov-12 23:30N 31°57' W 117°15'4 7.3
2017-Nov-12 23:00N 31°54' W 117°13'4 8.3
2017-Nov-12 22:30N 31°52' W 117°17'5 9.1
2017-Nov-12 22:00N 31°50' W 117°23'5 9.2
2017-Nov-12 21:30N 31°49' W 117°28'5 9.3
2017-Nov-12 20:55N 31°48' W 117°34'4 9.5
2017-Nov-12 20:30N 31°48' W 117°39'5 9.6
2017-Nov-12 20:00N 31°47' W 117°44'5 9.5
2017-Nov-12 19:30N 31°45' W 117°50'5 8.9
2017-Nov-12 18:57N 31°43' W 117°55'3 7.1
2017-Nov-12 18:30N 31°40' W 117°54'612.6
2017-Nov-12 18:00N 31°36' W 117°48'4184.5 320 / 201020.310.8 21.014.719.0
2017-Nov-12 17:58N 31°37' W 117°52'4 7.5
2017-Nov-12 17:30N 31°35' W 117°56'4 8.3
2017-Nov-12 17:00N 31°35' W 118°01'4 8.3
2017-Nov-12 16:30N 31°35' W 118°06'4 8.1
2017-Nov-12 16:00N 31°35' W 118°10'4 7.7
2017-Nov-12 15:30N 31°35' W 118°15'4 6.9
2017-Nov-12 15:00N 31°33' W 118°19'3 6.2
2017-Nov-12 14:30N 31°31' W 118°16'4 7.5
2017-Nov-12 13:58N 31°31' W 118°12'4 7.3
2017-Nov-12 13:25N 31°31' W 118°07'3 7.2
2017-Nov-12 13:00N 31°31' W 118°03'4 7.3
2017-Nov-12 12:30N 31°31' W 117°59'4 7.5
2017-Nov-12 12:00N 31°31' W 117°55'6384.3
2017-Nov-12 12:00N 31°30' W 117°48'   330 / 271018.3 5.4 18.015.619.0

Dump ship's entire track history